sensor_id;sensor_type;location;lat;lon;timestamp;P1;durP1;ratioP1;P2;durP2;ratioP2
83190;SDS011;73087;49.924;22.080;2024-01-15T00:00:58;23.52;;;11.90;;
83190;SDS011;73087;49.924;22.080;2024-01-15T00:01:59;21.90;;;10.43;;
83190;SDS011;73087;49.924;22.080;2024-01-15T00:02:59;22.60;;;11.90;;
83190;SDS011;73087;49.924;22.080;2024-01-15T00:04:00;21.73;;;11.10;;
83190;SDS011;73087;49.924;22.080;2024-01-15T00:05:01;25.83;;;12.05;;
83190;SDS011;73087;49.924;22.080;2024-01-15T00:06:01;25.13;;;11.25;;
83190;SDS011;73087;49.924;22.080;2024-01-15T00:07:03;24.23;;;10.77;;
83190;SDS011;73087;49.924;22.080;2024-01-15T00:08:04;21.60;;;10.77;;
83190;SDS011;73087;49.924;22.080;2024-01-15T00:09:05;22.25;;;9.48;;
83190;SDS011;73087;49.924;22.080;2024-01-15T00:10:07;27.42;;;12.20;;
83190;SDS011;73087;49.924;22.080;2024-01-15T00:11:07;22.42;;;10.52;;
83190;SDS011;73087;49.924;22.080;2024-01-15T00:12:08;22.60;;;9.85;;
83190;SDS011;73087;49.924;22.080;2024-01-15T00:13:08;27.02;;;12.10;;
83190;SDS011;73087;49.924;22.080;2024-01-15T00:14:09;23.65;;;10.25;;
83190;SDS011;73087;49.924;22.080;2024-01-15T00:15:09;20.98;;;10.10;;
83190;SDS011;73087;49.924;22.080;2024-01-15T00:16:10;24.30;;;11.90;;
83190;SDS011;73087;49.924;22.080;2024-01-15T00:17:10;22.85;;;10.68;;
83190;SDS011;73087;49.924;22.080;2024-01-15T00:18:11;20.38;;;10.30;;
83190;SDS011;73087;49.924;22.080;2024-01-15T00:19:12;19.50;;;8.82;;
83190;SDS011;73087;49.924;22.080;2024-01-15T00:20:12;22.73;;;10.77;;
83190;SDS011;73087;49.924;22.080;2024-01-15T00:21:13;22.33;;;11.20;;
83190;SDS011;73087;49.924;22.080;2024-01-15T00:22:15;19.67;;;9.20;;
83190;SDS011;73087;49.924;22.080;2024-01-15T00:23:16;24.25;;;11.27;;
83190;SDS011;73087;49.924;22.080;2024-01-15T00:24:16;22.38;;;11.52;;
83190;SDS011;73087;49.924;22.080;2024-01-15T00:25:17;25.60;;;11.20;;
83190;SDS011;73087;49.924;22.080;2024-01-15T00:26:17;24.25;;;10.82;;
83190;SDS011;73087;49.924;22.080;2024-01-15T00:27:18;18.73;;;9.43;;
83190;SDS011;73087;49.924;22.080;2024-01-15T00:28:18;22.33;;;11.02;;
83190;SDS011;73087;49.924;22.080;2024-01-15T00:29:19;21.13;;;10.10;;
83190;SDS011;73087;49.924;22.080;2024-01-15T00:30:19;22.63;;;10.98;;
83190;SDS011;73087;49.924;22.080;2024-01-15T00:31:20;23.70;;;11.52;;
83190;SDS011;73087;49.924;22.080;2024-01-15T00:32:20;24.35;;;11.32;;
83190;SDS011;73087;49.924;22.080;2024-01-15T00:33:21;23.70;;;10.52;;
83190;SDS011;73087;49.924;22.080;2024-01-15T00:34:21;20.90;;;9.75;;
83190;SDS011;73087;49.924;22.080;2024-01-15T00:35:22;22.10;;;10.35;;
83190;SDS011;73087;49.924;22.080;2024-01-15T00:36:22;21.33;;;9.73;;
83190;SDS011;73087;49.924;22.080;2024-01-15T00:37:24;22.30;;;11.27;;
83190;SDS011;73087;49.924;22.080;2024-01-15T00:38:25;20.80;;;10.65;;
83190;SDS011;73087;49.924;22.080;2024-01-15T00:39:25;20.58;;;10.32;;
83190;SDS011;73087;49.924;22.080;2024-01-15T00:40:26;20.38;;;10.73;;
83190;SDS011;73087;49.924;22.080;2024-01-15T00:41:27;22.13;;;11.40;;
83190;SDS011;73087;49.924;22.080;2024-01-15T00:42:27;24.33;;;11.63;;
83190;SDS011;73087;49.924;22.080;2024-01-15T00:43:28;22.35;;;10.63;;
83190;SDS011;73087;49.924;22.080;2024-01-15T00:44:28;20.85;;;9.45;;
83190;SDS011;73087;49.924;22.080;2024-01-15T00:45:29;18.13;;;9.05;;
83190;SDS011;73087;49.924;22.080;2024-01-15T00:46:29;26.45;;;11.48;;
83190;SDS011;73087;49.924;22.080;2024-01-15T00:47:30;20.13;;;10.90;;
83190;SDS011;73087;49.924;22.080;2024-01-15T00:48:30;19.63;;;9.32;;
83190;SDS011;73087;49.924;22.080;2024-01-15T00:49:31;22.05;;;10.98;;
83190;SDS011;73087;49.924;22.080;2024-01-15T00:50:34;22.13;;;10.50;;
83190;SDS011;73087;49.924;22.080;2024-01-15T00:51:35;23.27;;;9.85;;
83190;SDS011;73087;49.924;22.080;2024-01-15T00:52:37;24.05;;;11.18;;
83190;SDS011;73087;49.924;22.080;2024-01-15T00:53:37;22.67;;;9.32;;
83190;SDS011;73087;49.924;22.080;2024-01-15T00:54:38;21.70;;;10.23;;
83190;SDS011;73087;49.924;22.080;2024-01-15T00:55:39;23.38;;;10.50;;
83190;SDS011;73087;49.924;22.080;2024-01-15T00:56:39;18.50;;;8.45;;
83190;SDS011;73087;49.924;22.080;2024-01-15T00:57:41;23.65;;;11.30;;
83190;SDS011;73087;49.924;22.080;2024-01-15T00:58:41;19.92;;;9.82;;
83190;SDS011;73087;49.924;22.080;2024-01-15T00:59:42;20.60;;;10.40;;
83190;SDS011;73087;49.924;22.080;2024-01-15T01:00:43;19.20;;;9.07;;
83190;SDS011;73087;49.924;22.080;2024-01-15T01:01:43;19.00;;;9.82;;
83190;SDS011;73087;49.924;22.080;2024-01-15T01:02:44;20.08;;;9.05;;
83190;SDS011;73087;49.924;22.080;2024-01-15T01:03:45;25.15;;;11.32;;
83190;SDS011;73087;49.924;22.080;2024-01-15T01:04:46;24.85;;;11.10;;
83190;SDS011;73087;49.924;22.080;2024-01-15T01:05:48;23.08;;;11.20;;
83190;SDS011;73087;49.924;22.080;2024-01-15T01:06:48;25.45;;;11.43;;
83190;SDS011;73087;49.924;22.080;2024-01-15T01:07:50;19.63;;;9.98;;
83190;SDS011;73087;49.924;22.080;2024-01-15T01:08:51;21.63;;;10.00;;
83190;SDS011;73087;49.924;22.080;2024-01-15T01:09:51;21.98;;;10.77;;
83190;SDS011;73087;49.924;22.080;2024-01-15T01:10:52;18.67;;;9.05;;
83190;SDS011;73087;49.924;22.080;2024-01-15T01:11:52;19.70;;;9.48;;
83190;SDS011;73087;49.924;22.080;2024-01-15T01:12:53;23.27;;;10.30;;
83190;SDS011;73087;49.924;22.080;2024-01-15T01:13:54;20.13;;;10.15;;
83190;SDS011;73087;49.924;22.080;2024-01-15T01:14:54;21.98;;;8.95;;
83190;SDS011;73087;49.924;22.080;2024-01-15T01:15:55;22.23;;;10.98;;
83190;SDS011;73087;49.924;22.080;2024-01-15T01:16:55;17.30;;;8.35;;
83190;SDS011;73087;49.924;22.080;2024-01-15T01:17:56;15.18;;;7.57;;
83190;SDS011;73087;49.924;22.080;2024-01-15T01:18:56;18.80;;;8.93;;
83190;SDS011;73087;49.924;22.080;2024-01-15T01:19:57;18.67;;;9.52;;
83190;SDS011;73087;49.924;22.080;2024-01-15T01:20:57;18.95;;;9.10;;
83190;SDS011;73087;49.924;22.080;2024-01-15T01:21:58;17.45;;;9.32;;
83190;SDS011;73087;49.924;22.080;2024-01-15T01:23:00;16.17;;;8.30;;
83190;SDS011;73087;49.924;22.080;2024-01-15T01:24:00;16.08;;;8.50;;
83190;SDS011;73087;49.924;22.080;2024-01-15T01:25:01;12.82;;;7.35;;
83190;SDS011;73087;49.924;22.080;2024-01-15T01:26:02;18.10;;;9.52;;
83190;SDS011;73087;49.924;22.080;2024-01-15T01:27:04;16.42;;;8.43;;
83190;SDS011;73087;49.924;22.080;2024-01-15T01:28:04;14.35;;;7.30;;
83190;SDS011;73087;49.924;22.080;2024-01-15T01:29:05;18.27;;;8.50;;
83190;SDS011;73087;49.924;22.080;2024-01-15T01:30:06;19.08;;;9.60;;
83190;SDS011;73087;49.924;22.080;2024-01-15T01:31:07;16.38;;;9.05;;
83190;SDS011;73087;49.924;22.080;2024-01-15T01:32:07;18.52;;;8.45;;
83190;SDS011;73087;49.924;22.080;2024-01-15T01:33:08;16.58;;;8.02;;
83190;SDS011;73087;49.924;22.080;2024-01-15T01:34:08;16.42;;;7.70;;
83190;SDS011;73087;49.924;22.080;2024-01-15T01:35:09;14.98;;;7.97;;
83190;SDS011;73087;49.924;22.080;2024-01-15T01:36:10;17.40;;;8.18;;
83190;SDS011;73087;49.924;22.080;2024-01-15T01:37:10;13.98;;;7.65;;
83190;SDS011;73087;49.924;22.080;2024-01-15T01:38:12;18.17;;;8.35;;
83190;SDS011;73087;49.924;22.080;2024-01-15T01:39:13;17.88;;;8.57;;
83190;SDS011;73087;49.924;22.080;2024-01-15T01:40:13;18.25;;;8.15;;
83190;SDS011;73087;49.924;22.080;2024-01-15T01:41:14;16.35;;;8.82;;
83190;SDS011;73087;49.924;22.080;2024-01-15T01:42:15;19.67;;;9.60;;
83190;SDS011;73087;49.924;22.080;2024-01-15T01:43:15;15.43;;;8.02;;
83190;SDS011;73087;49.924;22.080;2024-01-15T01:44:16;16.15;;;8.05;;
83190;SDS011;73087;49.924;22.080;2024-01-15T01:45:16;16.83;;;9.02;;
83190;SDS011;73087;49.924;22.080;2024-01-15T01:46:17;15.75;;;8.80;;
83190;SDS011;73087;49.924;22.080;2024-01-15T01:47:18;12.85;;;7.75;;
83190;SDS011;73087;49.924;22.080;2024-01-15T01:48:18;16.27;;;7.70;;
83190;SDS011;73087;49.924;22.080;2024-01-15T01:49:19;19.50;;;10.20;;
83190;SDS011;73087;49.924;22.080;2024-01-15T01:50:19;15.35;;;7.72;;
83190;SDS011;73087;49.924;22.080;2024-01-15T01:51:22;18.88;;;8.43;;
83190;SDS011;73087;49.924;22.080;2024-01-15T01:52:24;16.88;;;8.75;;
83190;SDS011;73087;49.924;22.080;2024-01-15T01:53:26;16.50;;;8.23;;
83190;SDS011;73087;49.924;22.080;2024-01-15T01:54:29;18.75;;;8.75;;
83190;SDS011;73087;49.924;22.080;2024-01-15T01:55:31;17.40;;;8.73;;
83190;SDS011;73087;49.924;22.080;2024-01-15T01:56:33;18.45;;;9.30;;
83190;SDS011;73087;49.924;22.080;2024-01-15T01:57:34;19.63;;;9.85;;
83190;SDS011;73087;49.924;22.080;2024-01-15T01:58:35;16.25;;;8.43;;
83190;SDS011;73087;49.924;22.080;2024-01-15T01:59:36;17.48;;;8.95;;
83190;SDS011;73087;49.924;22.080;2024-01-15T02:00:37;16.38;;;8.30;;
83190;SDS011;73087;49.924;22.080;2024-01-15T02:01:38;14.90;;;8.18;;
83190;SDS011;73087;49.924;22.080;2024-01-15T02:02:39;16.95;;;8.18;;
83190;SDS011;73087;49.924;22.080;2024-01-15T02:03:39;15.50;;;7.53;;
83190;SDS011;73087;49.924;22.080;2024-01-15T02:04:42;18.42;;;9.30;;
83190;SDS011;73087;49.924;22.080;2024-01-15T02:05:44;17.35;;;8.07;;
83190;SDS011;73087;49.924;22.080;2024-01-15T02:06:47;13.88;;;7.25;;
83190;SDS011;73087;49.924;22.080;2024-01-15T02:07:48;20.70;;;9.73;;
83190;SDS011;73087;49.924;22.080;2024-01-15T02:08:50;18.35;;;9.45;;
83190;SDS011;73087;49.924;22.080;2024-01-15T02:09:51;17.00;;;8.13;;
83190;SDS011;73087;49.924;22.080;2024-01-15T02:10:52;18.27;;;8.65;;
83190;SDS011;73087;49.924;22.080;2024-01-15T02:11:52;18.80;;;8.57;;
83190;SDS011;73087;49.924;22.080;2024-01-15T02:12:53;15.05;;;8.07;;
83190;SDS011;73087;49.924;22.080;2024-01-15T02:13:54;17.67;;;9.07;;
83190;SDS011;73087;49.924;22.080;2024-01-15T02:14:54;15.05;;;8.30;;
83190;SDS011;73087;49.924;22.080;2024-01-15T02:15:55;16.00;;;8.77;;
83190;SDS011;73087;49.924;22.080;2024-01-15T02:16:56;16.77;;;8.82;;
83190;SDS011;73087;49.924;22.080;2024-01-15T02:17:57;18.70;;;8.45;;
83190;SDS011;73087;49.924;22.080;2024-01-15T02:18:58;18.77;;;9.00;;
83190;SDS011;73087;49.924;22.080;2024-01-15T02:19:58;17.13;;;8.15;;
83190;SDS011;73087;49.924;22.080;2024-01-15T02:20:59;17.42;;;9.00;;
83190;SDS011;73087;49.924;22.080;2024-01-15T02:21:59;19.00;;;9.10;;
83190;SDS011;73087;49.924;22.080;2024-01-15T02:23:03;15.05;;;7.88;;
83190;SDS011;73087;49.924;22.080;2024-01-15T02:24:07;17.77;;;8.55;;
83190;SDS011;73087;49.924;22.080;2024-01-15T02:25:08;19.02;;;9.25;;
83190;SDS011;73087;49.924;22.080;2024-01-15T02:26:08;14.82;;;7.82;;
83190;SDS011;73087;49.924;22.080;2024-01-15T02:27:09;13.05;;;7.30;;
83190;SDS011;73087;49.924;22.080;2024-01-15T02:28:10;13.75;;;7.57;;
83190;SDS011;73087;49.924;22.080;2024-01-15T02:29:12;16.48;;;7.70;;
83190;SDS011;73087;49.924;22.080;2024-01-15T02:30:13;15.77;;;8.38;;
83190;SDS011;73087;49.924;22.080;2024-01-15T02:31:16;18.85;;;9.73;;
83190;SDS011;73087;49.924;22.080;2024-01-15T02:32:18;15.75;;;8.32;;
83190;SDS011;73087;49.924;22.080;2024-01-15T02:33:19;14.30;;;7.32;;
83190;SDS011;73087;49.924;22.080;2024-01-15T02:34:19;15.82;;;7.63;;
83190;SDS011;73087;49.924;22.080;2024-01-15T02:35:20;17.98;;;8.75;;
83190;SDS011;73087;49.924;22.080;2024-01-15T02:36:20;19.67;;;9.77;;
83190;SDS011;73087;49.924;22.080;2024-01-15T02:37:21;16.05;;;7.82;;
83190;SDS011;73087;49.924;22.080;2024-01-15T02:38:23;18.13;;;9.05;;
83190;SDS011;73087;49.924;22.080;2024-01-15T02:39:23;17.83;;;8.30;;
83190;SDS011;73087;49.924;22.080;2024-01-15T02:40:24;17.30;;;8.75;;
83190;SDS011;73087;49.924;22.080;2024-01-15T02:41:24;19.10;;;8.05;;
83190;SDS011;73087;49.924;22.080;2024-01-15T02:42:26;16.02;;;7.90;;
83190;SDS011;73087;49.924;22.080;2024-01-15T02:43:26;15.20;;;8.02;;
83190;SDS011;73087;49.924;22.080;2024-01-15T02:44:27;17.23;;;8.50;;
83190;SDS011;73087;49.924;22.080;2024-01-15T02:45:27;14.13;;;7.18;;
83190;SDS011;73087;49.924;22.080;2024-01-15T02:46:28;15.07;;;6.38;;
83190;SDS011;73087;49.924;22.080;2024-01-15T02:47:28;16.25;;;9.00;;
83190;SDS011;73087;49.924;22.080;2024-01-15T02:48:29;18.02;;;9.02;;
83190;SDS011;73087;49.924;22.080;2024-01-15T02:49:29;14.40;;;6.20;;
83190;SDS011;73087;49.924;22.080;2024-01-15T02:50:30;16.60;;;8.38;;
83190;SDS011;73087;49.924;22.080;2024-01-15T02:51:30;14.55;;;6.85;;
83190;SDS011;73087;49.924;22.080;2024-01-15T02:52:31;16.52;;;8.38;;
83190;SDS011;73087;49.924;22.080;2024-01-15T02:53:33;13.73;;;7.15;;
83190;SDS011;73087;49.924;22.080;2024-01-15T02:54:34;14.45;;;7.35;;
83190;SDS011;73087;49.924;22.080;2024-01-15T02:55:34;15.20;;;7.07;;
83190;SDS011;73087;49.924;22.080;2024-01-15T02:56:35;16.65;;;7.68;;
83190;SDS011;73087;49.924;22.080;2024-01-15T02:57:35;16.88;;;8.27;;
83190;SDS011;73087;49.924;22.080;2024-01-15T02:58:36;15.65;;;8.73;;
83190;SDS011;73087;49.924;22.080;2024-01-15T02:59:36;16.55;;;7.78;;
83190;SDS011;73087;49.924;22.080;2024-01-15T03:00:37;15.75;;;8.30;;
83190;SDS011;73087;49.924;22.080;2024-01-15T03:01:37;15.70;;;7.25;;
83190;SDS011;73087;49.924;22.080;2024-01-15T03:02:38;13.63;;;7.60;;
83190;SDS011;73087;49.924;22.080;2024-01-15T03:03:40;15.32;;;7.63;;
83190;SDS011;73087;49.924;22.080;2024-01-15T03:04:42;22.55;;;9.95;;
83190;SDS011;73087;49.924;22.080;2024-01-15T03:05:43;18.30;;;8.65;;
83190;SDS011;73087;49.924;22.080;2024-01-15T03:06:44;12.85;;;6.75;;
83190;SDS011;73087;49.924;22.080;2024-01-15T03:07:45;18.45;;;8.27;;
83190;SDS011;73087;49.924;22.080;2024-01-15T03:08:47;17.30;;;8.15;;
83190;SDS011;73087;49.924;22.080;2024-01-15T03:09:47;16.67;;;7.53;;
83190;SDS011;73087;49.924;22.080;2024-01-15T03:10:48;15.55;;;7.75;;
83190;SDS011;73087;49.924;22.080;2024-01-15T03:11:49;15.35;;;7.35;;
83190;SDS011;73087;49.924;22.080;2024-01-15T03:12:49;14.27;;;7.63;;
83190;SDS011;73087;49.924;22.080;2024-01-15T03:13:50;14.52;;;6.80;;
83190;SDS011;73087;49.924;22.080;2024-01-15T03:14:50;12.77;;;6.47;;
83190;SDS011;73087;49.924;22.080;2024-01-15T03:15:51;16.17;;;7.63;;
83190;SDS011;73087;49.924;22.080;2024-01-15T03:16:51;15.48;;;7.47;;
83190;SDS011;73087;49.924;22.080;2024-01-15T03:17:52;11.70;;;6.32;;
83190;SDS011;73087;49.924;22.080;2024-01-15T03:18:52;14.45;;;6.93;;
83190;SDS011;73087;49.924;22.080;2024-01-15T03:19:53;14.60;;;7.85;;
83190;SDS011;73087;49.924;22.080;2024-01-15T03:20:53;13.98;;;6.53;;
83190;SDS011;73087;49.924;22.080;2024-01-15T03:21:54;13.32;;;6.85;;
83190;SDS011;73087;49.924;22.080;2024-01-15T03:22:54;11.10;;;6.78;;
83190;SDS011;73087;49.924;22.080;2024-01-15T03:23:56;14.77;;;7.60;;
83190;SDS011;73087;49.924;22.080;2024-01-15T03:24:57;15.80;;;7.50;;
83190;SDS011;73087;49.924;22.080;2024-01-15T03:25:58;13.65;;;6.72;;
83190;SDS011;73087;49.924;22.080;2024-01-15T03:26:58;11.45;;;6.82;;
83190;SDS011;73087;49.924;22.080;2024-01-15T03:27:59;11.57;;;6.53;;
83190;SDS011;73087;49.924;22.080;2024-01-15T03:28:59;12.77;;;6.50;;
83190;SDS011;73087;49.924;22.080;2024-01-15T03:30:00;12.05;;;6.55;;
83190;SDS011;73087;49.924;22.080;2024-01-15T03:31:01;15.82;;;7.07;;
83190;SDS011;73087;49.924;22.080;2024-01-15T03:32:01;13.15;;;7.13;;
83190;SDS011;73087;49.924;22.080;2024-01-15T03:33:02;12.60;;;6.65;;
83190;SDS011;73087;49.924;22.080;2024-01-15T03:34:02;12.68;;;6.82;;
83190;SDS011;73087;49.924;22.080;2024-01-15T03:35:03;15.95;;;7.75;;
83190;SDS011;73087;49.924;22.080;2024-01-15T03:36:04;13.18;;;6.63;;
83190;SDS011;73087;49.924;22.080;2024-01-15T03:37:05;12.63;;;6.03;;
83190;SDS011;73087;49.924;22.080;2024-01-15T03:38:06;13.18;;;7.45;;
83190;SDS011;73087;49.924;22.080;2024-01-15T03:39:08;13.70;;;7.28;;
83190;SDS011;73087;49.924;22.080;2024-01-15T03:40:09;13.50;;;6.65;;
83190;SDS011;73087;49.924;22.080;2024-01-15T03:41:10;13.65;;;7.00;;
83190;SDS011;73087;49.924;22.080;2024-01-15T03:42:11;13.23;;;6.88;;
83190;SDS011;73087;49.924;22.080;2024-01-15T03:43:12;12.35;;;6.15;;
83190;SDS011;73087;49.924;22.080;2024-01-15T03:44:12;12.40;;;6.32;;
83190;SDS011;73087;49.924;22.080;2024-01-15T03:45:13;11.02;;;5.22;;
83190;SDS011;73087;49.924;22.080;2024-01-15T03:46:13;13.32;;;7.05;;
83190;SDS011;73087;49.924;22.080;2024-01-15T03:47:14;11.40;;;6.40;;
83190;SDS011;73087;49.924;22.080;2024-01-15T03:48:14;11.85;;;6.03;;
83190;SDS011;73087;49.924;22.080;2024-01-15T03:49:15;11.63;;;5.70;;
83190;SDS011;73087;49.924;22.080;2024-01-15T03:50:15;10.82;;;5.93;;
83190;SDS011;73087;49.924;22.080;2024-01-15T03:51:17;13.45;;;6.80;;
83190;SDS011;73087;49.924;22.080;2024-01-15T03:52:17;10.82;;;5.03;;
83190;SDS011;73087;49.924;22.080;2024-01-15T03:53:18;11.80;;;6.32;;
83190;SDS011;73087;49.924;22.080;2024-01-15T03:54:20;10.77;;;5.63;;
83190;SDS011;73087;49.924;22.080;2024-01-15T03:55:20;11.45;;;6.68;;
83190;SDS011;73087;49.924;22.080;2024-01-15T03:56:21;11.77;;;6.78;;
83190;SDS011;73087;49.924;22.080;2024-01-15T03:57:21;10.93;;;6.07;;
83190;SDS011;73087;49.924;22.080;2024-01-15T03:58:22;13.13;;;6.13;;
83190;SDS011;73087;49.924;22.080;2024-01-15T03:59:22;14.23;;;6.18;;
83190;SDS011;73087;49.924;22.080;2024-01-15T04:00:23;11.63;;;5.50;;
83190;SDS011;73087;49.924;22.080;2024-01-15T04:01:23;8.98;;;5.13;;
83190;SDS011;73087;49.924;22.080;2024-01-15T04:02:24;10.82;;;5.63;;
83190;SDS011;73087;49.924;22.080;2024-01-15T04:03:24;12.30;;;6.05;;
83190;SDS011;73087;49.924;22.080;2024-01-15T04:04:25;9.73;;;5.47;;
83190;SDS011;73087;49.924;22.080;2024-01-15T04:05:26;12.18;;;5.57;;
83190;SDS011;73087;49.924;22.080;2024-01-15T04:06:26;10.40;;;5.57;;
83190;SDS011;73087;49.924;22.080;2024-01-15T04:07:27;13.55;;;6.30;;
83190;SDS011;73087;49.924;22.080;2024-01-15T04:08:32;11.20;;;5.85;;
83190;SDS011;73087;49.924;22.080;2024-01-15T04:09:34;10.30;;;5.15;;
83190;SDS011;73087;49.924;22.080;2024-01-15T04:10:35;10.13;;;5.38;;
83190;SDS011;73087;49.924;22.080;2024-01-15T04:11:35;13.50;;;6.18;;
83190;SDS011;73087;49.924;22.080;2024-01-15T04:12:37;12.77;;;6.10;;
83190;SDS011;73087;49.924;22.080;2024-01-15T04:13:38;10.73;;;4.93;;
83190;SDS011;73087;49.924;22.080;2024-01-15T04:14:38;12.23;;;5.53;;
83190;SDS011;73087;49.924;22.080;2024-01-15T04:15:39;11.13;;;5.15;;
83190;SDS011;73087;49.924;22.080;2024-01-15T04:16:39;9.82;;;5.30;;
83190;SDS011;73087;49.924;22.080;2024-01-15T04:17:40;11.77;;;5.93;;
83190;SDS011;73087;49.924;22.080;2024-01-15T04:18:40;10.88;;;5.50;;
83190;SDS011;73087;49.924;22.080;2024-01-15T04:19:43;11.13;;;4.78;;
83190;SDS011;73087;49.924;22.080;2024-01-15T04:20:44;8.68;;;5.10;;
83190;SDS011;73087;49.924;22.080;2024-01-15T04:21:44;9.63;;;4.72;;
83190;SDS011;73087;49.924;22.080;2024-01-15T04:22:45;11.25;;;5.60;;
83190;SDS011;73087;49.924;22.080;2024-01-15T04:23:45;10.45;;;5.45;;
83190;SDS011;73087;49.924;22.080;2024-01-15T04:24:47;10.43;;;5.00;;
83190;SDS011;73087;49.924;22.080;2024-01-15T04:25:48;11.70;;;5.65;;
83190;SDS011;73087;49.924;22.080;2024-01-15T04:26:48;8.57;;;5.18;;
83190;SDS011;73087;49.924;22.080;2024-01-15T04:27:49;12.15;;;6.00;;
83190;SDS011;73087;49.924;22.080;2024-01-15T04:28:49;9.27;;;4.90;;
83190;SDS011;73087;49.924;22.080;2024-01-15T04:29:50;9.88;;;4.75;;
83190;SDS011;73087;49.924;22.080;2024-01-15T04:30:50;11.82;;;6.28;;
83190;SDS011;73087;49.924;22.080;2024-01-15T04:31:51;9.27;;;4.85;;
83190;SDS011;73087;49.924;22.080;2024-01-15T04:32:53;12.60;;;5.68;;
83190;SDS011;73087;49.924;22.080;2024-01-15T04:33:53;10.10;;;5.22;;
83190;SDS011;73087;49.924;22.080;2024-01-15T04:34:54;11.27;;;4.80;;
83190;SDS011;73087;49.924;22.080;2024-01-15T04:35:55;11.95;;;5.15;;
83190;SDS011;73087;49.924;22.080;2024-01-15T04:36:56;9.50;;;5.15;;
83190;SDS011;73087;49.924;22.080;2024-01-15T04:37:56;14.18;;;6.30;;
83190;SDS011;73087;49.924;22.080;2024-01-15T04:38:57;10.55;;;4.97;;
83190;SDS011;73087;49.924;22.080;2024-01-15T04:39:59;10.73;;;5.30;;
83190;SDS011;73087;49.924;22.080;2024-01-15T04:41:00;11.48;;;6.10;;
83190;SDS011;73087;49.924;22.080;2024-01-15T04:42:00;12.98;;;6.50;;
83190;SDS011;73087;49.924;22.080;2024-01-15T04:43:01;9.85;;;5.70;;
83190;SDS011;73087;49.924;22.080;2024-01-15T04:44:01;13.75;;;6.20;;
83190;SDS011;73087;49.924;22.080;2024-01-15T04:45:02;9.68;;;5.32;;
83190;SDS011;73087;49.924;22.080;2024-01-15T04:46:05;10.48;;;5.43;;
83190;SDS011;73087;49.924;22.080;2024-01-15T04:47:05;13.93;;;6.47;;
83190;SDS011;73087;49.924;22.080;2024-01-15T04:48:06;11.48;;;6.20;;
83190;SDS011;73087;49.924;22.080;2024-01-15T04:49:06;11.77;;;5.47;;
83190;SDS011;73087;49.924;22.080;2024-01-15T04:50:07;10.02;;;5.70;;
83190;SDS011;73087;49.924;22.080;2024-01-15T04:51:09;10.88;;;5.28;;
83190;SDS011;73087;49.924;22.080;2024-01-15T04:52:10;10.73;;;5.75;;
83190;SDS011;73087;49.924;22.080;2024-01-15T04:53:10;9.98;;;5.40;;
83190;SDS011;73087;49.924;22.080;2024-01-15T04:54:11;11.18;;;5.78;;
83190;SDS011;73087;49.924;22.080;2024-01-15T04:55:13;11.90;;;5.95;;
83190;SDS011;73087;49.924;22.080;2024-01-15T04:56:14;12.00;;;6.88;;
83190;SDS011;73087;49.924;22.080;2024-01-15T04:57:15;11.13;;;5.43;;
83190;SDS011;73087;49.924;22.080;2024-01-15T04:58:15;12.65;;;6.93;;
83190;SDS011;73087;49.924;22.080;2024-01-15T04:59:16;13.95;;;6.43;;
83190;SDS011;73087;49.924;22.080;2024-01-15T05:00:17;11.90;;;5.97;;
83190;SDS011;73087;49.924;22.080;2024-01-15T05:01:19;11.20;;;5.60;;
83190;SDS011;73087;49.924;22.080;2024-01-15T05:02:19;12.70;;;5.88;;
83190;SDS011;73087;49.924;22.080;2024-01-15T05:03:20;12.07;;;6.30;;
83190;SDS011;73087;49.924;22.080;2024-01-15T05:04:20;11.57;;;5.65;;
83190;SDS011;73087;49.924;22.080;2024-01-15T05:05:21;11.45;;;5.45;;
83190;SDS011;73087;49.924;22.080;2024-01-15T05:06:21;10.93;;;5.85;;
83190;SDS011;73087;49.924;22.080;2024-01-15T05:07:22;11.45;;;5.80;;
83190;SDS011;73087;49.924;22.080;2024-01-15T05:08:22;11.70;;;5.13;;
83190;SDS011;73087;49.924;22.080;2024-01-15T05:09:23;11.75;;;5.40;;
83190;SDS011;73087;49.924;22.080;2024-01-15T05:10:25;13.43;;;6.38;;
83190;SDS011;73087;49.924;22.080;2024-01-15T05:11:25;11.35;;;6.25;;
83190;SDS011;73087;49.924;22.080;2024-01-15T05:12:26;11.10;;;6.15;;
83190;SDS011;73087;49.924;22.080;2024-01-15T05:13:27;13.60;;;6.68;;
83190;SDS011;73087;49.924;22.080;2024-01-15T05:14:27;27.00;;;11.70;;
83190;SDS011;73087;49.924;22.080;2024-01-15T05:15:28;35.42;;;15.85;;
83190;SDS011;73087;49.924;22.080;2024-01-15T05:16:28;20.98;;;12.10;;
83190;SDS011;73087;49.924;22.080;2024-01-15T05:17:29;15.77;;;8.00;;
83190;SDS011;73087;49.924;22.080;2024-01-15T05:18:29;12.63;;;6.45;;
83190;SDS011;73087;49.924;22.080;2024-01-15T05:19:30;23.95;;;12.10;;
83190;SDS011;73087;49.924;22.080;2024-01-15T05:20:30;33.88;;;14.57;;
83190;SDS011;73087;49.924;22.080;2024-01-15T05:21:31;59.78;;;23.42;;
83190;SDS011;73087;49.924;22.080;2024-01-15T05:22:31;34.75;;;13.75;;
83190;SDS011;73087;49.924;22.080;2024-01-15T05:23:32;49.28;;;18.38;;
83190;SDS011;73087;49.924;22.080;2024-01-15T05:24:32;94.28;;;32.45;;
83190;SDS011;73087;49.924;22.080;2024-01-15T05:25:34;42.30;;;16.15;;
83190;SDS011;73087;49.924;22.080;2024-01-15T05:26:35;28.92;;;11.68;;
83190;SDS011;73087;49.924;22.080;2024-01-15T05:27:35;71.70;;;28.40;;
83190;SDS011;73087;49.924;22.080;2024-01-15T05:28:36;32.03;;;13.48;;
83190;SDS011;73087;49.924;22.080;2024-01-15T05:29:36;25.77;;;11.00;;
83190;SDS011;73087;49.924;22.080;2024-01-15T05:30:37;56.35;;;19.13;;
83190;SDS011;73087;49.924;22.080;2024-01-15T05:31:38;27.25;;;11.50;;
83190;SDS011;73087;49.924;22.080;2024-01-15T05:32:38;16.58;;;8.88;;
83190;SDS011;73087;49.924;22.080;2024-01-15T05:33:39;31.48;;;12.85;;
83190;SDS011;73087;49.924;22.080;2024-01-15T05:34:40;46.28;;;16.38;;
83190;SDS011;73087;49.924;22.080;2024-01-15T05:35:40;12.52;;;5.38;;
83190;SDS011;73087;49.924;22.080;2024-01-15T05:36:41;23.45;;;9.73;;
83190;SDS011;73087;49.924;22.080;2024-01-15T05:37:42;23.20;;;9.75;;
83190;SDS011;73087;49.924;22.080;2024-01-15T05:38:44;33.22;;;13.07;;
83190;SDS011;73087;49.924;22.080;2024-01-15T05:39:44;15.13;;;7.57;;
83190;SDS011;73087;49.924;22.080;2024-01-15T05:40:46;17.63;;;8.15;;
83190;SDS011;73087;49.924;22.080;2024-01-15T05:41:47;16.17;;;8.00;;
83190;SDS011;73087;49.924;22.080;2024-01-15T05:42:47;21.15;;;8.77;;
83190;SDS011;73087;49.924;22.080;2024-01-15T05:43:48;18.80;;;8.82;;
83190;SDS011;73087;49.924;22.080;2024-01-15T05:44:49;22.15;;;10.25;;
83190;SDS011;73087;49.924;22.080;2024-01-15T05:45:49;23.20;;;8.73;;
83190;SDS011;73087;49.924;22.080;2024-01-15T05:46:50;24.92;;;11.02;;
83190;SDS011;73087;49.924;22.080;2024-01-15T05:47:50;19.42;;;9.68;;
83190;SDS011;73087;49.924;22.080;2024-01-15T05:48:51;16.55;;;7.35;;
83190;SDS011;73087;49.924;22.080;2024-01-15T05:49:51;9.40;;;5.13;;
83190;SDS011;73087;49.924;22.080;2024-01-15T05:50:52;19.85;;;10.15;;
83190;SDS011;73087;49.924;22.080;2024-01-15T05:51:52;11.02;;;6.05;;
83190;SDS011;73087;49.924;22.080;2024-01-15T05:52:53;12.07;;;6.85;;
83190;SDS011;73087;49.924;22.080;2024-01-15T05:53:53;14.40;;;6.03;;
83190;SDS011;73087;49.924;22.080;2024-01-15T05:54:54;9.75;;;5.80;;